sensor_id;sensor_type;location;lat;lon;timestamp;pressure;altitude;pressure_sealevel;temperature;humidity
56334;BME280;42240;53.626;55.886;2022-12-10T00:01:30;81958.69;;;-145.10;100.00
56334;BME280;42240;53.626;55.886;2022-12-10T00:03:04;81944.81;;;-145.10;100.00
56334;BME280;42240;53.626;55.886;2022-12-10T00:04:38;81942.84;;;-145.10;100.00
56334;BME280;42240;53.626;55.886;2022-12-10T00:06:20;81934.91;;;-145.10;100.00
56334;BME280;42240;53.626;55.886;2022-12-10T00:07:54;81927.00;;;-145.10;100.00
56334;BME280;42240;53.626;55.886;2022-12-10T00:09:28;81915.13;;;-145.10;100.00
56334;BME280;42240;53.626;55.886;2022-12-10T00:11:07;81909.19;;;-145.10;100.00
56334;BME280;42240;53.626;55.886;2022-12-10T00:12:41;81905.22;;;-145.10;100.00
56334;BME280;42240;53.626;55.886;2022-12-10T00:14:14;81911.16;;;-145.10;100.00
56334;BME280;42240;53.626;55.886;2022-12-10T00:15:49;81915.13;;;-145.10;100.00
56334;BME280;42240;53.626;55.886;2022-12-10T00:17:23;81909.19;;;-145.10;100.00
56334;BME280;42240;53.626;55.886;2022-12-10T00:18:57;81915.13;;;-145.10;100.00
56334;BME280;42240;53.626;55.886;2022-12-10T00:20:31;81907.19;;;-145.10;100.00
56334;BME280;42240;53.626;55.886;2022-12-10T00:22:04;81923.03;;;-145.10;100.00
56334;BME280;42240;53.626;55.886;2022-12-10T00:23:39;81915.13;;;-145.10;100.00
56334;BME280;42240;53.626;55.886;2022-12-10T00:25:12;81919.09;;;-145.10;100.00
56334;BME280;42240;53.626;55.886;2022-12-10T00:26:46;81915.13;;;-145.10;100.00
56334;BME280;42240;53.626;55.886;2022-12-10T00:28:22;81911.16;;;-145.10;100.00
56334;BME280;42240;53.626;55.886;2022-12-10T00:29:59;81962.66;;;-145.10;100.00
56334;BME280;42240;53.626;55.886;2022-12-10T00:31:35;81873.53;;;-145.10;100.00
56334;BME280;42240;53.626;55.886;2022-12-10T00:33:12;81875.53;;;-145.10;100.00
56334;BME280;42240;53.626;55.886;2022-12-10T00:34:46;81867.59;;;-145.10;100.00
56334;BME280;42240;53.626;55.886;2022-12-10T00:36:25;81887.41;;;-145.10;100.00
56334;BME280;42240;53.626;55.886;2022-12-10T00:37:59;81835.91;;;-145.10;100.00
56334;BME280;42240;53.626;55.886;2022-12-10T00:39:33;81843.84;;;-145.10;100.00
56334;BME280;42240;53.626;55.886;2022-12-10T00:41:06;81843.84;;;-145.10;100.00
56334;BME280;42240;53.626;55.886;2022-12-10T00:42:40;81839.88;;;-145.10;100.00
56334;BME280;42240;53.626;55.886;2022-12-10T00:44:15;81841.84;;;-145.10;100.00
56334;BME280;42240;53.626;55.886;2022-12-10T00:45:48;81829.97;;;-145.10;100.00
56334;BME280;42240;53.626;55.886;2022-12-10T00:47:25;81855.72;;;-145.10;100.00
56334;BME280;42240;53.626;55.886;2022-12-10T00:49:17;81822.06;;;-145.10;100.00
56334;BME280;42240;53.626;55.886;2022-12-10T00:50:59;81804.25;;;-145.10;100.00
56334;BME280;42240;53.626;55.886;2022-12-10T00:52:33;81800.28;;;-145.10;100.00
56334;BME280;42240;53.626;55.886;2022-12-10T00:54:06;81784.44;;;-145.10;100.00
56334;BME280;42240;53.626;55.886;2022-12-10T00:55:40;81782.47;;;-145.10;100.00
56334;BME280;42240;53.626;55.886;2022-12-10T00:57:14;81772.56;;;-145.10;100.00
56334;BME280;42240;53.626;55.886;2022-12-10T00:58:48;81768.59;;;-145.10;100.00
56334;BME280;42240;53.626;55.886;2022-12-10T01:00:22;81756.72;;;-145.10;100.00
56334;BME280;42240;53.626;55.886;2022-12-10T01:01:57;81746.81;;;-145.10;100.00
56334;BME280;42240;53.626;55.886;2022-12-10T01:03:33;81725.03;;;-145.10;100.00
56334;BME280;42240;53.626;55.886;2022-12-10T01:05:06;81732.97;;;-145.10;100.00
56334;BME280;42240;53.626;55.886;2022-12-10T01:06:43;81707.22;;;-145.10;100.00
56334;BME280;42240;53.626;55.886;2022-12-10T01:08:17;81695.34;;;-145.10;100.00
56334;BME280;42240;53.626;55.886;2022-12-10T01:09:51;81683.47;;;-145.10;100.00
56334;BME280;42240;53.626;55.886;2022-12-10T01:11:29;81669.59;;;-145.10;100.00
56334;BME280;42240;53.626;55.886;2022-12-10T01:13:04;81655.75;;;-145.10;100.00
56334;BME280;42240;53.626;55.886;2022-12-10T01:14:38;81649.81;;;-145.10;100.00
56334;BME280;42240;53.626;55.886;2022-12-10T01:16:14;81647.81;;;-145.10;100.00
56334;BME280;42240;53.626;55.886;2022-12-10T01:17:48;81639.91;;;-145.10;100.00
56334;BME280;42240;53.626;55.886;2022-12-10T01:19:22;81657.72;;;-145.10;100.00
56334;BME280;42240;53.626;55.886;2022-12-10T01:21:07;81645.84;;;-145.10;100.00
56334;BME280;42240;53.626;55.886;2022-12-10T01:22:41;81645.84;;;-145.10;100.00
56334;BME280;42240;53.626;55.886;2022-12-10T01:24:14;81651.78;;;-145.10;100.00
56334;BME280;42240;53.626;55.886;2022-12-10T01:25:49;81649.81;;;-145.10;100.00
56334;BME280;42240;53.626;55.886;2022-12-10T01:27:23;81649.81;;;-145.10;100.00
56334;BME280;42240;53.626;55.886;2022-12-10T01:28:57;81645.84;;;-145.10;100.00
56334;BME280;42240;53.626;55.886;2022-12-10T01:30:32;81645.84;;;-145.10;100.00
56334;BME280;42240;53.626;55.886;2022-12-10T01:32:07;81637.94;;;-145.10;100.00
56334;BME280;42240;53.626;55.886;2022-12-10T01:33:43;81649.81;;;-145.10;100.00
56334;BME280;42240;53.626;55.886;2022-12-10T01:35:17;81649.81;;;-145.10;100.00
56334;BME280;42240;53.626;55.886;2022-12-10T01:36:53;81661.69;;;-145.10;100.00
56334;BME280;42240;53.626;55.886;2022-12-10T01:38:27;81653.78;;;-145.10;100.00
56334;BME280;42240;53.626;55.886;2022-12-10T01:40:03;81663.66;;;-145.10;100.00
56334;BME280;42240;53.626;55.886;2022-12-10T01:41:41;81705.25;;;-145.10;100.00
56334;BME280;42240;53.626;55.886;2022-12-10T01:43:16;81669.59;;;-145.10;100.00
56334;BME280;42240;53.626;55.886;2022-12-10T01:46:26;81677.53;;;-145.10;100.00
56334;BME280;42240;53.626;55.886;2022-12-10T01:48:01;81681.47;;;-145.10;100.00
56334;BME280;42240;53.626;55.886;2022-12-10T01:49:42;81685.44;;;-145.10;100.00
56334;BME280;42240;53.626;55.886;2022-12-10T01:51:18;81693.38;;;-145.10;100.00
56334;BME280;42240;53.626;55.886;2022-12-10T01:52:55;81744.84;;;-145.10;100.00
56334;BME280;42240;53.626;55.886;2022-12-10T01:54:37;81707.22;;;-145.10;100.00
56334;BME280;42240;53.626;55.886;2022-12-10T01:56:16;81709.19;;;-145.10;100.00
56334;BME280;42240;53.626;55.886;2022-12-10T01:57:50;81717.13;;;-145.10;100.00
56334;BME280;42240;53.626;55.886;2022-12-10T01:59:27;81717.13;;;-145.10;100.00
56334;BME280;42240;53.626;55.886;2022-12-10T02:01:04;81725.03;;;-145.10;100.00
56334;BME280;42240;53.626;55.886;2022-12-10T02:02:47;81717.13;;;-145.10;100.00
56334;BME280;42240;53.626;55.886;2022-12-10T02:14:37;81750.78;;;-145.10;100.00
56334;BME280;42240;53.626;55.886;2022-12-10T02:16:30;81756.72;;;-145.10;100.00
56334;BME280;42240;53.626;55.886;2022-12-10T02:18:24;81758.69;;;-145.10;100.00
56334;BME280;42240;53.626;55.886;2022-12-10T02:21:40;81758.69;;;-145.10;100.00
56334;BME280;42240;53.626;55.886;2022-12-10T02:23:22;81746.81;;;-145.10;100.00
56334;BME280;42240;53.626;55.886;2022-12-10T02:24:58;81738.91;;;-145.10;100.00
56334;BME280;42240;53.626;55.886;2022-12-10T02:28:50;81730.97;;;-145.10;100.00
56334;BME280;42240;53.626;55.886;2022-12-10T02:30:25;81736.91;;;-145.10;100.00
56334;BME280;42240;53.626;55.886;2022-12-10T02:32:05;81776.53;;;-145.10;100.00
56334;BME280;42240;53.626;55.886;2022-12-10T02:33:45;81729.00;;;-145.10;100.00
56334;BME280;42240;53.626;55.886;2022-12-10T02:35:28;81729.00;;;-145.10;100.00
56334;BME280;42240;53.626;55.886;2022-12-10T02:37:10;81727.03;;;-145.10;100.00
56334;BME280;42240;53.626;55.886;2022-12-10T02:38:47;81732.97;;;-145.10;100.00
56334;BME280;42240;53.626;55.886;2022-12-10T02:40:30;81730.97;;;-145.10;100.00
56334;BME280;42240;53.626;55.886;2022-12-10T02:42:07;81740.88;;;-145.10;100.00
56334;BME280;42240;53.626;55.886;2022-12-10T02:43:45;81730.97;;;-145.10;100.00
56334;BME280;42240;53.626;55.886;2022-12-10T02:45:23;81804.25;;;-145.10;100.00
56334;BME280;42240;53.626;55.886;2022-12-10T02:46:59;81736.91;;;-145.10;100.00
56334;BME280;42240;53.626;55.886;2022-12-10T02:48:39;81736.91;;;-145.10;100.00
56334;BME280;42240;53.626;55.886;2022-12-10T02:50:14;81732.97;;;-145.10;100.00
56334;BME280;42240;53.626;55.886;2022-12-10T02:51:49;81729.00;;;-145.10;100.00
56334;BME280;42240;53.626;55.886;2022-12-10T02:53:22;81727.03;;;-145.10;100.00
56334;BME280;42240;53.626;55.886;2022-12-10T02:54:59;81717.13;;;-145.10;100.00
56334;BME280;42240;53.626;55.886;2022-12-10T02:56:42;81713.16;;;-145.10;100.00
56334;BME280;42240;53.626;55.886;2022-12-10T02:58:28;81709.19;;;-145.10;100.00
56334;BME280;42240;53.626;55.886;2022-12-10T03:02:15;81711.19;;;-145.10;100.00
56334;BME280;42240;53.626;55.886;2022-12-10T03:04:01;81713.16;;;-145.10;100.00
56334;BME280;42240;53.626;55.886;2022-12-10T03:05:45;81713.16;;;-145.10;100.00
56334;BME280;42240;53.626;55.886;2022-12-10T03:07:34;81721.09;;;-145.10;100.00
56334;BME280;42240;53.626;55.886;2022-12-10T03:09:40;81717.13;;;-145.10;100.00
56334;BME280;42240;53.626;55.886;2022-12-10T03:11:21;81740.88;;;-145.10;100.00
56334;BME280;42240;53.626;55.886;2022-12-10T03:13:00;81715.16;;;-145.10;100.00
56334;BME280;42240;53.626;55.886;2022-12-10T03:14:36;81721.09;;;-145.10;100.00
56334;BME280;42240;53.626;55.886;2022-12-10T03:16:11;81721.09;;;-145.10;100.00
56334;BME280;42240;53.626;55.886;2022-12-10T03:17:47;81723.06;;;-145.10;100.00
56334;BME280;42240;53.626;55.886;2022-12-10T03:19:25;81715.16;;;-145.10;100.00
56334;BME280;42240;53.626;55.886;2022-12-10T03:21:05;81721.09;;;-145.10;100.00
56334;BME280;42240;53.626;55.886;2022-12-10T03:22:43;81711.19;;;-145.10;100.00
56334;BME280;42240;53.626;55.886;2022-12-10T03:24:17;81711.19;;;-145.10;100.00
56334;BME280;42240;53.626;55.886;2022-12-10T03:25:51;81717.13;;;-145.10;100.00
56334;BME280;42240;53.626;55.886;2022-12-10T03:27:26;81715.16;;;-145.10;100.00
56334;BME280;42240;53.626;55.886;2022-12-10T03:29:29;81725.03;;;-145.10;100.00
56334;BME280;42240;53.626;55.886;2022-12-10T03:31:02;81725.03;;;-145.10;100.00
56334;BME280;42240;53.626;55.886;2022-12-10T03:32:36;81729.00;;;-145.10;100.00
56334;BME280;42240;53.626;55.886;2022-12-10T03:34:11;81721.09;;;-145.10;100.00
56334;BME280;42240;53.626;55.886;2022-12-10T03:35:45;81727.03;;;-145.10;100.00
56334;BME280;42240;53.626;55.886;2022-12-10T03:37:20;81727.03;;;-145.10;100.00
56334;BME280;42240;53.626;55.886;2022-12-10T03:38:55;81732.97;;;-145.10;100.00
56334;BME280;42240;53.626;55.886;2022-12-10T03:40:29;81746.81;;;-145.10;100.00
56334;BME280;42240;53.626;55.886;2022-12-10T03:42:05;81742.88;;;-145.10;100.00
56334;BME280;42240;53.626;55.886;2022-12-10T03:43:55;81760.69;;;-145.10;100.00
56334;BME280;42240;53.626;55.886;2022-12-10T03:45:30;81770.59;;;-145.10;100.00
56334;BME280;42240;53.626;55.886;2022-12-10T03:47:06;81772.56;;;-145.10;100.00
56334;BME280;42240;53.626;55.886;2022-12-10T03:48:41;81768.59;;;-145.10;100.00
56334;BME280;42240;53.626;55.886;2022-12-10T03:50:17;81766.63;;;-145.10;100.00
56334;BME280;42240;53.626;55.886;2022-12-10T03:51:52;81758.69;;;-145.10;100.00
56334;BME280;42240;53.626;55.886;2022-12-10T03:53:25;81776.53;;;-145.10;100.00
56334;BME280;42240;53.626;55.886;2022-12-10T03:54:59;81772.56;;;-145.10;100.00
56334;BME280;42240;53.626;55.886;2022-12-10T03:56:39;81770.59;;;-145.10;100.00
56334;BME280;42240;53.626;55.886;2022-12-10T03:58:12;81770.59;;;-145.10;100.00
56334;BME280;42240;53.626;55.886;2022-12-10T03:59:51;81776.53;;;-145.10;100.00
56334;BME280;42240;53.626;55.886;2022-12-10T04:01:25;81776.53;;;-145.10;100.00
56334;BME280;42240;53.626;55.886;2022-12-10T04:02:59;81768.59;;;-145.10;100.00
56334;BME280;42240;53.626;55.886;2022-12-10T04:04:32;81762.66;;;-145.10;100.00
56334;BME280;42240;53.626;55.886;2022-12-10T04:06:12;81752.75;;;-145.10;100.00
56334;BME280;42240;53.626;55.886;2022-12-10T04:07:46;81766.63;;;-145.10;100.00
56334;BME280;42240;53.626;55.886;2022-12-10T04:09:20;81776.53;;;-145.10;100.00
56334;BME280;42240;53.626;55.886;2022-12-10T04:10:54;81764.66;;;-145.10;100.00
56334;BME280;42240;53.626;55.886;2022-12-10T04:12:27;81780.47;;;-145.10;100.00
56334;BME280;42240;53.626;55.886;2022-12-10T04:14:08;81762.66;;;-145.10;100.00
56334;BME280;42240;53.626;55.886;2022-12-10T04:16:03;81776.53;;;-145.10;100.00
56334;BME280;42240;53.626;55.886;2022-12-10T04:17:56;81774.53;;;-145.10;100.00
56334;BME280;42240;53.626;55.886;2022-12-10T04:19:29;81764.66;;;-145.10;100.00
56334;BME280;42240;53.626;55.886;2022-12-10T04:21:03;81770.59;;;-145.10;100.00
56334;BME280;42240;53.626;55.886;2022-12-10T04:22:55;81754.75;;;-145.10;100.00
56334;BME280;42240;53.626;55.886;2022-12-10T04:24:47;81756.72;;;-145.10;100.00
56334;BME280;42240;53.626;55.886;2022-12-10T04:26:40;81766.63;;;-145.10;100.00
56334;BME280;42240;53.626;55.886;2022-12-10T04:28:26;81768.59;;;-145.10;100.00
56334;BME280;42240;53.626;55.886;2022-12-10T04:30:00;81760.69;;;-145.10;100.00
56334;BME280;42240;53.626;55.886;2022-12-10T04:31:35;81766.63;;;-145.10;100.00
56334;BME280;42240;53.626;55.886;2022-12-10T04:33:09;81760.69;;;-145.10;100.00
56334;BME280;42240;53.626;55.886;2022-12-10T04:34:43;81748.81;;;-145.10;100.00
56334;BME280;42240;53.626;55.886;2022-12-10T04:36:16;81732.97;;;-145.10;100.00
56334;BME280;42240;53.626;55.886;2022-12-10T04:37:50;81734.94;;;-145.10;100.00
56334;BME280;42240;53.626;55.886;2022-12-10T04:39:24;81725.03;;;-145.10;100.00
56334;BME280;42240;53.626;55.886;2022-12-10T04:40:58;81717.13;;;-145.10;100.00
56334;BME280;42240;53.626;55.886;2022-12-10T04:42:31;81717.13;;;-145.10;100.00
56334;BME280;42240;53.626;55.886;2022-12-10T04:44:08;81713.16;;;-145.10;100.00
56334;BME280;42240;53.626;55.886;2022-12-10T04:45:42;81707.22;;;-145.10;100.00
56334;BME280;42240;53.626;55.886;2022-12-10T04:47:17;81691.38;;;-145.10;100.00
56334;BME280;42240;53.626;55.886;2022-12-10T04:48:52;81659.72;;;-145.10;100.00
56334;BME280;42240;53.626;55.886;2022-12-10T04:50:26;81639.91;;;-145.10;100.00
56334;BME280;42240;53.626;55.886;2022-12-10T04:52:00;81622.09;;;-145.10;100.00
56334;BME280;42240;53.626;55.886;2022-12-10T04:53:34;81574.56;;;-145.10;100.00
56334;BME280;42240;53.626;55.886;2022-12-10T04:55:08;81548.84;;;-145.10;100.00
56334;BME280;42240;53.626;55.886;2022-12-10T04:56:42;81505.28;;;-145.10;100.00
56334;BME280;42240;53.626;55.886;2022-12-10T04:58:21;81445.88;;;-145.10;100.00
56334;BME280;42240;53.626;55.886;2022-12-10T04:59:54;81384.50;;;-145.10;100.00
56334;BME280;42240;53.626;55.886;2022-12-10T05:01:28;81356.78;;;-145.10;100.00
56334;BME280;42240;53.626;55.886;2022-12-10T05:03:02;81299.38;;;-145.10;100.00
56334;BME280;42240;53.626;55.886;2022-12-10T05:04:36;81297.41;;;-145.10;100.00
56334;BME280;42240;53.626;55.886;2022-12-10T05:06:12;81301.38;;;-145.10;100.00
56334;BME280;42240;53.626;55.886;2022-12-10T05:07:46;81346.91;;;-145.10;100.00
56334;BME280;42240;53.626;55.886;2022-12-10T05:09:20;81333.03;;;-145.10;100.00
56334;BME280;42240;53.626;55.886;2022-12-10T05:10:54;81315.22;;;-145.10;100.00
56334;BME280;42240;53.626;55.886;2022-12-10T05:12:28;81309.28;;;-145.10;100.00
56334;BME280;42240;53.626;55.886;2022-12-10T05:14:02;81283.53;;;-145.10;100.00
56334;BME280;42240;53.626;55.886;2022-12-10T05:15:39;81249.88;;;-145.10;100.00
56334;BME280;42240;53.626;55.886;2022-12-10T05:17:13;81243.94;;;-145.10;100.00
56334;BME280;42240;53.626;55.886;2022-12-10T05:18:47;81121.22;;;-145.10;100.00
56334;BME280;42240;53.626;55.886;2022-12-10T05:20:21;81117.25;;;-145.10;100.00
56334;BME280;42240;53.626;55.886;2022-12-10T05:21:55;81111.31;;;-145.10;100.00
56334;BME280;42240;53.626;55.886;2022-12-10T05:23:52;81170.69;;;-145.10;100.00
56334;BME280;42240;53.626;55.886;2022-12-10T05:25:26;81143.00;;;-145.10;100.00
56334;BME280;42240;53.626;55.886;2022-12-10T05:27:00;81143.00;;;-145.10;100.00
56334;BME280;42240;53.626;55.886;2022-12-10T05:28:37;81121.22;;;-145.10;100.00
56334;BME280;42240;53.626;55.886;2022-12-10T05:30:12;81113.28;;;-145.10;100.00
56334;BME280;42240;53.626;55.886;2022-12-10T05:31:48;81144.97;;;-145.10;100.00
56334;BME280;42240;53.626;55.886;2022-12-10T05:33:22;81182.56;;;-145.10;100.00
56334;BME280;42240;53.626;55.886;2022-12-10T05:34:56;81156.84;;;-145.10;100.00
56334;BME280;42240;53.626;55.886;2022-12-10T05:36:31;81150.91;;;-145.10;100.00
56334;BME280;42240;53.626;55.886;2022-12-10T05:38:05;81071.72;;;-145.10;100.00
56334;BME280;42240;53.626;55.886;2022-12-10T05:39:38;81018.28;;;-145.10;100.00
56334;BME280;42240;53.626;55.886;2022-12-10T05:41:18;80982.63;;;-145.10;100.00
56334;BME280;42240;53.626;55.886;2022-12-10T05:42:52;80974.72;;;-145.10;100.00
56334;BME280;42240;53.626;55.886;2022-12-10T05:44:26;80980.66;;;-145.10;100.00
56334;BME280;42240;53.626;55.886;2022-12-10T05:46:05;80931.16;;;-145.10;100.00
56334;BME280;42240;53.626;55.886;2022-12-10T05:47:39;80877.72;;;-145.10;100.00
56334;BME280;42240;53.626;55.886;2022-12-10T05:49:16;80865.84;;;-145.10;100.00
56334;BME280;42240;53.626;55.886;2022-12-10T05:50:50;80950.97;;;-145.10;100.00
56334;BME280;42240;53.626;55.886;2022-12-10T05:52:23;80996.50;;;-145.10;100.00
56334;BME280;42240;53.626;55.886;2022-12-10T05:53:58;81036.09;;;-145.10;100.00
56334;BME280;42240;53.626;55.886;2022-12-10T05:55:33;81129.13;;;-145.10;100.00
56334;BME280;42240;53.626;55.886;2022-12-10T05:57:06;81111.31;;;-145.10;100.00
56334;BME280;42240;53.626;55.886;2022-12-10T05:58:41;81055.88;;;-145.10;100.00
56334;BME280;42240;53.626;55.886;2022-12-10T06:00:18;80964.81;;;-145.10;100.00
56334;BME280;42240;53.626;55.886;2022-12-10T06:01:51;80913.34;;;-145.10;100.00
56334;BME280;42240;53.626;55.886;2022-12-10T06:03:27;80929.19;;;-145.10;100.00
56334;BME280;42240;53.626;55.886;2022-12-10T06:05:01;80879.69;;;-145.10;100.00
56334;BME280;42240;53.626;55.886;2022-12-10T06:06:36;80877.72;;;-145.10;100.00
56334;BME280;42240;53.626;55.886;2022-12-10T06:08:11;80867.81;;;-145.10;100.00
56334;BME280;42240;53.626;55.886;2022-12-10T06:09:44;80735.19;;;-145.10;100.00
56334;BME280;42240;53.626;55.886;2022-12-10T06:11:18;80658.00;;;-145.10;100.00
56334;BME280;42240;53.626;55.886;2022-12-10T06:12:58;80717.38;;;-145.10;100.00
56334;BME280;42240;53.626;55.886;2022-12-10T06:14:32;80652.06;;;-145.10;100.00
56334;BME280;42240;53.626;55.886;2022-12-10T06:16:07;80679.78;;;-145.10;100.00
56334;BME280;42240;53.626;55.886;2022-12-10T06:17:41;80711.44;;;-145.10;100.00
56334;BME280;42240;53.626;55.886;2022-12-10T06:19:18;80715.41;;;-145.10;100.00
56334;BME280;42240;53.626;55.886;2022-12-10T06:20:52;80768.84;;;-145.10;100.00
56334;BME280;42240;53.626;55.886;2022-12-10T06:22:25;80770.84;;;-145.10;100.00
56334;BME280;42240;53.626;55.886;2022-12-10T06:24:00;80737.19;;;-145.10;100.00
56334;BME280;42240;53.626;55.886;2022-12-10T06:25:37;80818.34;;;-145.10;100.00
56334;BME280;42240;53.626;55.886;2022-12-10T06:27:14;80770.84;;;-145.10;100.00
56334;BME280;42240;53.626;55.886;2022-12-10T06:28:49;80731.25;;;-145.10;100.00
56334;BME280;42240;53.626;55.886;2022-12-10T06:30:23;80723.31;;;-145.10;100.00
56334;BME280;42240;53.626;55.886;2022-12-10T06:31:57;80741.13;;;-145.10;100.00
56334;BME280;42240;53.626;55.886;2022-12-10T06:33:31;80747.06;;;-145.10;100.00
56334;BME280;42240;53.626;55.886;2022-12-10T06:35:05;80735.19;;;-145.10;100.00
56334;BME280;42240;53.626;55.886;2022-12-10T06:36:39;80733.22;;;-145.10;100.00
56334;BME280;42240;53.626;55.886;2022-12-10T06:38:13;80798.53;;;-145.10;100.00
56334;BME280;42240;53.626;55.886;2022-12-10T06:39:49;80810.41;;;-145.10;100.00
56334;BME280;42240;53.626;55.886;2022-12-10T06:41:23;80792.59;;;-145.10;100.00
56334;BME280;42240;53.626;55.886;2022-12-10T06:42:57;80786.66;;;-145.10;100.00
56334;BME280;42240;53.626;55.886;2022-12-10T06:44:31;80743.13;;;-145.10;100.00
56334;BME280;42240;53.626;55.886;2022-12-10T06:46:11;80758.97;;;-145.10;100.00
56334;BME280;42240;53.626;55.886;2022-12-10T06:47:45;80711.44;;;-145.10;100.00
56334;BME280;42240;53.626;55.886;2022-12-10T06:49:19;80703.53;;;-145.10;100.00
56334;BME280;42240;53.626;55.886;2022-12-10T06:50:53;80725.31;;;-145.10;100.00
56334;BME280;42240;53.626;55.886;2022-12-10T06:52:28;80735.19;;;-145.10;100.00
56334;BME280;42240;53.626;55.886;2022-12-10T06:54:02;80729.25;;;-145.10;100.00
56334;BME280;42240;53.626;55.886;2022-12-10T06:55:37;80715.41;;;-145.10;100.00
56334;BME280;42240;53.626;55.886;2022-12-10T06:57:11;80709.47;;;-145.10;100.00
56334;BME280;42240;53.626;55.886;2022-12-10T06:58:46;80756.97;;;-145.10;100.00
56334;BME280;42240;53.626;55.886;2022-12-10T07:00:20;80697.59;;;-145.10;100.00
56334;BME280;42240;53.626;55.886;2022-12-10T07:01:54;80699.56;;;-145.10;100.00
56334;BME280;42240;53.626;55.886;2022-12-10T07:03:28;80721.34;;;-145.10;100.00
56334;BME280;42240;53.626;55.886;2022-12-10T07:05:02;80723.31;;;-145.10;100.00
56334;BME280;42240;53.626;55.886;2022-12-10T07:06:35;80711.44;;;-145.10;100.00
56334;BME280;42240;53.626;55.886;2022-12-10T07:08:09;80715.41;;;-145.10;100.00
56334;BME280;42240;53.626;55.886;2022-12-10T07:09:43;80719.38;;;-145.10;100.00
56334;BME280;42240;53.626;55.886;2022-12-10T07:11:20;80737.19;;;-145.10;100.00
56334;BME280;42240;53.626;55.886;2022-12-10T07:12:54;80733.22;;;-145.10;100.00
56334;BME280;42240;53.626;55.886;2022-12-10T07:14:27;80691.66;;;-145.10;100.00
56334;BME280;42240;53.626;55.886;2022-12-10T07:16:01;80699.56;;;-145.10;100.00
56334;BME280;42240;53.626;55.886;2022-12-10T07:17:35;80659.97;;;-145.10;100.00
56334;BME280;42240;53.626;55.886;2022-12-10T07:19:11;80675.81;;;-145.10;100.00
56334;BME280;42240;53.626;55.886;2022-12-10T07:20:46;80681.75;;;-145.10;100.00
56334;BME280;42240;53.626;55.886;2022-12-10T07:22:19;80658.00;;;-145.10;100.00
56334;BME280;42240;53.626;55.886;2022-12-10T07:23:57;80675.81;;;-145.10;100.00
56334;BME280;42240;53.626;55.886;2022-12-10T07:25:32;80699.56;;;-145.10;100.00
56334;BME280;42240;53.626;55.886;2022-12-10T07:27:07;80695.63;;;-145.10;100.00
56334;BME280;42240;53.626;55.886;2022-12-10T07:28:42;80652.06;;;-145.10;100.00
56334;BME280;42240;53.626;55.886;2022-12-10T07:30:25;80683.75;;;-145.10;100.00
56334;BME280;42240;53.626;55.886;2022-12-10T07:31:58;80624.34;;;-145.10;100.00
56334;BME280;42240;53.626;55.886;2022-12-10T07:33:32;80600.59;;;-145.10;100.00
56334;BME280;42240;53.626;55.886;2022-12-10T07:35:06;80580.81;;;-145.10;100.00
56334;BME280;42240;53.626;55.886;2022-12-10T07:36:40;80600.59;;;-145.10;100.00
56334;BME280;42240;53.626;55.886;2022-12-10T07:38:13;80539.25;;;-145.10;100.00
56334;BME280;42240;53.626;55.886;2022-12-10T07:39:47;80509.56;;;-145.10;100.00
56334;BME280;42240;53.626;55.886;2022-12-10T07:41:21;80559.03;;;-145.10;100.00
56334;BME280;42240;53.626;55.886;2022-12-10T07:42:57;80529.34;;;-145.10;100.00
56334;BME280;42240;53.626;55.886;2022-12-10T07:44:30;80576.84;;;-145.10;100.00
56334;BME280;42240;53.626;55.886;2022-12-10T07:46:11;80580.81;;;-145.10;100.00
56334;BME280;42240;53.626;55.886;2022-12-10T07:47:45;80543.19;;;-145.10;100.00
56334;BME280;42240;53.626;55.886;2022-12-10T07:49:19;80555.06;;;-145.10;100.00
56334;BME280;42240;53.626;55.886;2022-12-10T07:50:56;80578.81;;;-145.10;100.00
56334;BME280;42240;53.626;55.886;2022-12-10T07:52:31;80553.09;;;-145.10;100.00
56334;BME280;42240;53.626;55.886;2022-12-10T07:54:05;80620.41;;;-145.10;100.00
56334;BME280;42240;53.626;55.886;2022-12-10T07:55:39;80568.94;;;-145.10;100.00
56334;BME280;42240;53.626;55.886;2022-12-10T07:57:13;80545.19;;;-145.10;100.00
56334;BME280;42240;53.626;55.886;2022-12-10T07:58:48;80553.09;;;-145.10;100.00
56334;BME280;42240;53.626;55.886;2022-12-10T08:00:22;80557.06;;;-145.10;100.00
56334;BME280;42240;53.626;55.886;2022-12-10T08:01:56;80568.94;;;-145.10;100.00
56334;BME280;42240;53.626;55.886;2022-12-10T08:03:33;80604.56;;;-145.10;100.00
56334;BME280;42240;53.626;55.886;2022-12-10T08:05:07;80606.53;;;-145.10;100.00
56334;BME280;42240;53.626;55.886;2022-12-10T08:06:41;80582.78;;;-145.10;100.00
56334;BME280;42240;53.626;55.886;2022-12-10T08:08:15;80570.91;;;-145.10;100.00
56334;BME280;42240;53.626;55.886;2022-12-10T08:09:48;80622.38;;;-145.10;100.00
56334;BME280;42240;53.626;55.886;2022-12-10T08:11:22;80640.19;;;-145.10;100.00
56334;BME280;42240;53.626;55.886;2022-12-10T08:12:57;80608.53;;;-145.10;100.00
56334;BME280;42240;53.626;55.886;2022-12-10T08:14:30;80590.72;;;-145.10;100.00
56334;BME280;42240;53.626;55.886;2022-12-10T08:16:09;80588.72;;;-145.10;100.00
56334;BME280;42240;53.626;55.886;2022-12-10T08:17:43;80505.59;;;-145.10;100.00
56334;BME280;42240;53.626;55.886;2022-12-10T08:19:16;80477.88;;;-145.10;100.00
56334;BME280;42240;53.626;55.886;2022-12-10T08:20:56;80477.88;;;-145.10;100.00
56334;BME280;42240;53.626;55.886;2022-12-10T08:22:30;80426.41;;;-145.10;100.00